Time;durP1;ratioP1;P1;durP2;ratioP2;P2;SDS_P1;SDS_P2;PMS_P1;PMS_P2;Temp;Humidity;BMP_temperature;BMP_pressure;BME280_temperature;BME280_humidity;BME280_pressure;Samples;Min_cycle;Max_cycle;Signal;HPM_P1;HPM_P2
2023/10/08 00:03:05;;;;;;;;;;;;;;;8.24;100.00;100620.88;5052112;28;19928;-87
2023/10/08 00:05:36;;;;;;;;;;;;;;;8.22;100.00;100613.88;5052006;28;19921;-81
2023/10/08 00:08:01;;;;;;;;;;;;;;;8.26;100.00;100615.56;5049926;28;19921;-84
2023/10/08 00:10:26;;;;;;;;;;;;;;;8.32;100.00;100615.47;5051950;28;20004;-82
2023/10/08 07:39:24;;;;;;;;;;;;;;;6.55;100.00;100599.06;5441487;23;19984;-85
2023/10/08 07:41:50;;;;;;;;;;;;;;;6.65;100.00;100602.47;5022520;28;20430;-85
2023/10/08 07:44:17;;;;;;;;;;;;;;;6.76;100.00;100609.34;5005285;28;20012;-85
2023/10/08 07:46:44;;;;;;;;;;;;;;;6.76;100.00;100609.34;5004642;28;19925;-85
2023/10/08 07:49:14;;;;;;;;;;;;;;;6.77;100.00;100619.84;5022398;28;20283;-85
2023/10/08 07:51:39;;;;;;;;;;;;;;;6.79;100.00;100625.97;5022666;28;19921;-86
2023/10/08 07:54:09;;;;;;;;;;;;;;;6.87;100.00;100617.94;5021038;28;19917;-85
2023/10/08 07:56:37;;;;;;;;;;;;;;;6.98;100.00;100623.94;5021493;28;20292;-85
2023/10/08 07:59:08;;;;;;;;;;;;;;;7.03;100.00;100623.88;5022586;28;20376;-85
2023/10/08 08:01:42;;;;;;;;;;;;;;;7.01;100.00;100626.53;5004523;28;20059;-84
2023/10/08 08:04:14;;;;;;;;;;;;;;;7.12;100.00;100628.16;5021643;28;20082;-85
2023/10/08 08:06:40;;;;;;;;;;;;;;;7.16;100.00;100630.69;5022439;28;19921;-84
2023/10/08 08:09:17;;;;;;;;;;;;;;;7.04;100.00;100626.47;5020979;28;20399;-85
2023/10/08 08:11:45;;;;;;;;;;;;;;;7.18;100.00;100633.28;5022170;28;20054;-84
2023/10/08 08:14:11;;;;;;;;;;;;;;;7.22;100.00;100641.13;5022432;28;19917;-85
2023/10/08 08:16:37;;;;;;;;;;;;;;;7.22;100.00;100640.28;5021773;28;19972;-85
2023/10/08 08:19:03;;;;;;;;;;;;;;;7.48;100.00;100641.63;5004840;28;20316;-85
2023/10/08 08:21:30;;;;;;;;;;;;;;;7.36;100.00;100648.84;5022712;28;20016;-85
2023/10/08 08:24:04;;;;;;;;;;;;;;;7.46;100.00;100660.97;5020902;28;20272;-85
2023/10/08 08:26:32;;;;;;;;;;;;;;;7.50;100.00;100656.53;5021227;28;19926;-85
2023/10/08 08:28:59;;;;;;;;;;;;;;;7.58;100.00;100662.56;5011171;28;20261;-87
2023/10/08 08:31:25;;;;;;;;;;;;;;;7.22;100.00;100661.38;5021892;28;19918;-84
2023/10/08 08:33:53;;;;;;;;;;;;;;;7.23;100.00;100663.97;5021918;28;20261;-84
2023/10/08 08:36:22;;;;;;;;;;;;;;;7.26;100.00;100670.97;5020878;28;20463;-85
2023/10/08 08:38:47;;;;;;;;;;;;;;;7.23;100.00;100668.41;5019400;28;19932;-84
2023/10/08 08:41:17;;;;;;;;;;;;;;;7.07;100.00;100662.47;5021543;28;19925;-86
2023/10/08 08:43:44;;;;;;;;;;;;;;;7.26;100.00;100669.22;5021852;28;19968;-84
2023/10/08 08:46:12;;;;;;;;;;;;;;;7.21;100.00;100659.63;5020760;28;19921;-84
2023/10/08 08:48:39;;;;;;;;;;;;;;;7.41;100.00;100657.53;5022108;28;19956;-84
2023/10/08 08:51:06;;;;;;;;;;;;;;;7.39;100.00;100654.06;5025072;28;19925;-84
2023/10/08 08:53:32;;;;;;;;;;;;;;;7.49;100.00;100648.66;5024385;28;19921;-84
2023/10/08 08:56:00;;;;;;;;;;;;;;;7.49;100.00;100635.47;5025714;28;20261;-84
2023/10/08 08:58:25;;;;;;;;;;;;;;;7.78;100.00;100641.09;5025859;28;19956;-84
2023/10/08 09:00:52;;;;;;;;;;;;;;;7.68;100.00;100639.53;5025215;28;19964;-84
2023/10/08 09:03:19;;;;;;;;;;;;;;;7.39;100.00;100637.38;5024238;28;20012;-84
2023/10/08 09:05:49;;;;;;;;;;;;;;;7.51;100.00;100638.94;5025148;28;19971;-85
2023/10/08 09:08:18;;;;;;;;;;;;;;;7.46;100.00;100633.75;5023564;28;19924;-85
2023/10/08 12:36:26;;;;;;;;;;;;;;;8.39;100.00;100545.75;5729916;22;19939;-84
2023/10/08 12:38:57;;;;;;;;;;;;;;;8.46;100.00;100559.75;5030204;28;19925;-83
2023/10/08 12:41:24;;;;;;;;;;;;;;;8.37;100.00;100544.91;5031464;28;20391;-84
2023/10/08 12:43:52;;;;;;;;;;;;;;;8.35;100.00;100552.03;5050447;28;20482;-84
2023/10/08 12:46:18;;;;;;;;;;;;;;;8.12;100.00;100539.28;5050268;28;20279;-84
2023/10/08 12:48:44;;;;;;;;;;;;;;;8.47;100.00;100542.97;5048791;28;19924;-84
2023/10/08 12:51:11;;;;;;;;;;;;;;;8.50;100.00;100537.63;5047898;28;19925;-85
2023/10/08 12:53:37;;;;;;;;;;;;;;;8.76;100.00;100534.41;5049749;28;19964;-84
2023/10/08 12:56:05;;;;;;;;;;;;;;;8.93;100.00;100530.47;5049530;28;19964;-84
2023/10/08 12:58:34;;;;;;;;;;;;;;;8.69;100.00;100540.72;5049494;28;19970;-84
2023/10/08 13:01:03;;;;;;;;;;;;;;;8.49;100.00;100544.69;5047974;28;20390;-84
2023/10/08 13:03:31;;;;;;;;;;;;;;;8.44;100.00;100543.94;5049644;28;19945;-84
2023/10/08 13:06:10;;;;;;;;;;;;;;;8.29;100.00;100531.03;5030666;28;19929;-84
2023/10/08 13:08:36;;;;;;;;;;;;;;;8.29;100.00;100536.31;5049314;28;19925;-85
2023/10/08 13:11:01;;;;;;;;;;;;;;;8.49;100.00;100536.78;5049623;28;19925;-83
2023/10/08 13:13:27;;;;;;;;;;;;;;;8.41;100.00;100532.50;5048319;28;19933;-83
2023/10/08 13:15:55;;;;;;;;;;;;;;;8.87;100.00;100536.78;5048897;28;19921;-86
2023/10/08 13:18:21;;;;;;;;;;;;;;;8.49;100.00;100523.56;5048339;28;19971;-92
2023/10/08 13:20:47;;;;;;;;;;;;;;;8.58;100.00;100533.03;5030972;28;19924;-84
2023/10/08 13:23:12;;;;;;;;;;;;;;;8.79;100.00;100530.81;5048521;28;19962;-84
2023/10/08 13:25:39;;;;;;;;;;;;;;;8.33;100.00;100530.06;5049206;28;19968;-84
2023/10/08 13:28:07;;;;;;;;;;;;;;;8.22;100.00;100535.56;5050618;28;19925;-83
2023/10/08 13:30:32;;;;;;;;;;;;;;;8.62;100.00;100533.88;5031473;28;20008;-87
2023/10/08 13:32:59;;;;;;;;;;;;;;;8.33;100.00;100535.34;5049671;28;20011;-86
2023/10/08 13:35:24;;;;;;;;;;;;;;;8.29;100.00;100531.88;5047939;28;19951;-82
2023/10/08 13:37:50;;;;;;;;;;;;;;;8.80;100.00;100530.78;5053568;28;19924;-88
2023/10/08 13:40:15;;;;;;;;;;;;;;;8.82;100.00;100526.34;5036653;28;19921;-82
2023/10/08 13:42:44;;;;;;;;;;;;;;;8.62;100.00;100516.22;5054684;28;19966;-84
2023/10/08 13:45:09;;;;;;;;;;;;;;;8.98;100.00;100515.38;5036376;28;19970;-82
2023/10/08 13:47:35;;;;;;;;;;;;;;;8.61;100.00;100503.91;5054801;28;19920;-83
2023/10/08 13:50:03;;;;;;;;;;;;;;;8.72;100.00;100508.94;5036321;28;19978;-83
2023/10/08 13:52:29;;;;;;;;;;;;;;;8.85;100.00;100514.81;5052219;28;19917;-84
2023/10/08 13:54:54;;;;;;;;;;;;;;;8.40;100.00;100513.16;5053864;28;19984;-84
2023/10/08 13:57:19;;;;;;;;;;;;;;;8.65;100.00;100510.03;5035959;28;20012;-84
2023/10/08 13:59:48;;;;;;;;;;;;;;;8.52;100.00;100499.72;5035869;28;19924;-84
2023/10/08 14:02:14;;;;;;;;;;;;;;;8.36;100.00;100506.25;5035433;28;19917;-84
2023/10/08 14:04:43;;;;;;;;;;;;;;;8.34;100.00;100502.75;5035514;28;19916;-83
2023/10/08 14:07:10;;;;;;;;;;;;;;;8.46;100.00;100497.22;5051698;28;19999;-84
2023/10/08 14:09:38;;;;;;;;;;;;;;;8.68;100.00;100487.03;5052935;28;19921;-84
2023/10/08 14:12:13;;;;;;;;;;;;;;;8.47;100.00;100487.50;5033430;28;19932;-87
2023/10/08 14:14:43;;;;;;;;;;;;;;;8.53;100.00;100487.38;5051763;28;20407;-83
2023/10/08 14:17:14;;;;;;;;;;;;;;;8.39;100.00;100495.56;5034859;28;19925;-86
2023/10/08 14:19:46;;;;;;;;;;;;;;;8.54;100.00;100494.41;5035321;28;19921;-84
2023/10/08 14:22:13;;;;;;;;;;;;;;;8.42;100.00;100494.66;5033876;28;19944;-84
2023/10/08 14:24:39;;;;;;;;;;;;;;;8.33;100.00;100487.81;5035071;28;19925;-84
2023/10/08 14:27:09;;;;;;;;;;;;;;;8.34;100.00;100489.53;5053119;28;19928;-83
2023/10/08 14:29:38;;;;;;;;;;;;;;;8.39;100.00;100486.78;5050972;28;19966;-85
2023/10/08 14:32:08;;;;;;;;;;;;;;;8.40;100.00;100492.03;5033963;28;20636;-83
2023/10/08 14:43:04;;;;;;;;;;;;;;;8.41;100.00;100482.34;5021954;28;20329;-84
2023/10/08 14:45:35;;;;;;;;;;;;;;;8.41;100.00;100477.06;5047943;28;19929;-84
2023/10/08 14:48:00;;;;;;;;;;;;;;;8.54;100.00;100474.13;5051576;28;19925;-84
2023/10/08 14:50:32;;;;;;;;;;;;;;;8.72;100.00;100466.69;5048812;28;20279;-83
2023/10/08 14:53:01;;;;;;;;;;;;;;;8.43;100.00;100472.63;5050954;28;19928;-84
2023/10/08 14:55:26;;;;;;;;;;;;;;;8.39;100.00;100468.31;5052055;28;19932;-84
2023/10/08 14:57:52;;;;;;;;;;;;;;;8.32;100.00;100467.59;5049970;28;19920;-83
2023/10/08 15:00:24;;;;;;;;;;;;;;;8.35;100.00;100468.38;5049701;28;19925;-85
2023/10/08 15:03:23;;;;;;;;;;;;;;;8.54;100.00;100462.72;5049549;28;20394;-92
2023/10/08 15:05:49;;;;;;;;;;;;;;;8.37;100.00;100463.06;5041939;28;20637;-84
2023/10/08 15:08:18;;;;;;;;;;;;;;;8.37;100.00;100465.69;5051049;28;19964;-84
2023/10/08 15:10:45;;;;;;;;;;;;;;;8.36;100.00;100469.25;5050344;28;19936;-83
2023/10/08 15:13:11;;;;;;;;;;;;;;;8.29;100.00;100468.50;5049983;28;19925;-84
2023/10/08 15:15:39;;;;;;;;;;;;;;;8.36;100.00;100469.25;5050416;28;19925;-84
2023/10/08 15:18:05;;;;;;;;;;;;;;;8.35;100.00;100457.81;5048850;28;19929;-83
2023/10/08 15:20:33;;;;;;;;;;;;;;;8.32;100.00;100463.16;5032061;28;20574;-84
2023/10/08 15:22:58;;;;;;;;;;;;;;;8.40;100.00;100457.72;5047307;28;19929;-85
2023/10/08 15:25:24;;;;;;;;;;;;;;;8.35;100.00;100457.81;5048865;28;19982;-83
2023/10/08 15:27:49;;;;;;;;;;;;;;;8.47;100.00;100456.72;5032928;28;20386;-83
2023/10/08 15:30:16;;;;;;;;;;;;;;;8.44;100.00;100461.19;5032110;28;19924;-84
2023/10/08 15:32:43;;;;;;;;;;;;;;;8.47;100.00;100456.72;5046089;28;19982;-84
2023/10/08 15:35:09;;;;;;;;;;;;;;;8.48;100.00;100453.16;5033636;28;20287;-84
2023/10/08 15:37:37;;;;;;;;;;;;;;;8.58;100.00;100448.50;5024511;28;19929;-83
2023/10/08 15:40:06;;;;;;;;;;;;;;;8.56;100.00;100444.19;5038633;28;19921;-83
2023/10/08 15:42:32;;;;;;;;;;;;;;;8.48;100.00;100447.88;5023230;28;19929;-83
2023/10/08 15:44:57;;;;;;;;;;;;;;;8.58;100.00;100443.22;5006353;28;19921;-83
2023/10/08 15:47:22;;;;;;;;;;;;;;;8.59;100.00;100442.34;5038652;28;19921;-83
2023/10/08 15:49:48;;;;;;;;;;;;;;;8.64;100.00;100434.28;5038238;28;19917;-83
2023/10/08 15:52:14;;;;;;;;;;;;;;;8.54;100.00;100436.31;5036322;28;19939;-88
2023/10/08 15:54:40;;;;;;;;;;;;;;;8.59;100.00;100430.91;5020916;28;20124;-84
2023/10/08 15:57:06;;;;;;;;;;;;;;;8.61;100.00;100426.44;5021786;28;20651;-84
2023/10/08 15:59:31;;;;;;;;;;;;;;;8.59;100.00;100428.25;5024071;28;20012;-85
2023/10/08 16:01:56;;;;;;;;;;;;;;;8.49;100.00;100428.47;5035283;28;19970;-84
2023/10/08 16:04:26;;;;;;;;;;;;;;;15.58;100.00;100436.81;5020768;28;19929;-85
2023/10/08 16:06:52;;;;;;;;;;;;;;;12.36;100.00;100423.28;5037809;28;19921;-85
2023/10/08 16:09:17;;;;;;;;;;;;;;;10.65;100.00;100424.16;5039882;28;20274;-84
2023/10/08 16:11:42;;;;;;;;;;;;;;;9.94;100.00;100424.59;5039295;28;19924;-84
2023/10/08 16:14:07;;;;;;;;;;;;;;;9.62;100.00;100434.34;5035179;28;19921;-85
2023/10/08 16:16:33;;;;;;;;;;;;;;;9.63;100.00;100440.47;5037851;28;19924;-85
2023/10/08 16:18:58;;;;;;;;;;;;;;;9.56;100.00;100434.50;5021005;28;20020;-84
2023/10/08 16:21:23;;;;;;;;;;;;;;;9.63;100.00;100430.75;5033511;28;19921;-84
2023/10/08 16:23:49;;;;;;;;;;;;;;;9.48;100.00;100440.91;5036033;28;20290;-83
2023/10/08 16:26:15;;;;;;;;;;;;;;;9.47;100.00;100433.91;5036646;28;19925;-85
2023/10/08 16:28:40;;;;;;;;;;;;;;;9.57;100.00;100436.25;5026329;28;20398;-85
2023/10/08 16:31:06;;;;;;;;;;;;;;;9.48;100.00;100431.22;5034907;28;19929;-85
2023/10/08 16:33:34;;;;;;;;;;;;;;;9.27;100.00;100435.31;5021480;28;19920;-86
2023/10/08 16:36:00;;;;;;;;;;;;;;;9.35;100.00;100437.75;5019700;28;19925;-84
2023/10/08 16:38:25;;;;;;;;;;;;;;;9.26;100.00;100438.88;5048532;28;20376;-83
2023/10/08 16:41:12;;;;;;;;;;;;;;;9.17;100.00;100434.69;5050713;28;20000;-86
2023/10/08 16:43:37;;;;;;;;;;;;;;;9.19;100.00;100443.47;5030772;28;19917;-83
2023/10/08 16:46:05;;;;;;;;;;;;;;;9.18;100.00;100438.22;5051030;28;19921;-85
2023/10/08 16:48:30;;;;;;;;;;;;;;;9.12;100.00;100433.94;5050823;28;20379;-84
2023/10/08 16:50:56;;;;;;;;;;;;;;;8.98;100.00;100430.78;5047867;28;19929;-84
2023/10/08 16:53:21;;;;;;;;;;;;;;;8.81;100.00;100428.59;5050077;28;20689;-84
2023/10/08 16:55:46;;;;;;;;;;;;;;;8.69;100.00;100429.75;5033911;28;19925;-83
2023/10/08 16:58:12;;;;;;;;;;;;;;;8.63;100.00;100435.19;5049353;28;19917;-84
2023/10/08 17:00:38;;;;;;;;;;;;;;;8.48;100.00;100436.44;5049689;28;20007;-84
2023/10/08 17:03:04;;;;;;;;;;;;;;;8.51;100.00;100431.94;5049334;28;20256;-84
2023/10/08 17:05:29;;;;;;;;;;;;;;;8.63;100.00;100435.19;5049116;28;20054;-84
2023/10/08 17:07:55;;;;;;;;;;;;;;;8.51;100.00;100434.59;5050558;28;20011;-84
2023/10/08 17:10:21;;;;;;;;;;;;;;;8.51;100.00;100431.09;5049233;28;19978;-83
2023/10/08 17:12:46;;;;;;;;;;;;;;;8.54;100.00;100431.88;5053634;28;20360;-83
2023/10/08 17:15:12;;;;;;;;;;;;;;;8.45;100.00;100429.44;5055219;28;19924;-84
2023/10/08 17:17:38;;;;;;;;;;;;;;;8.39;100.00;100426.91;5037580;28;20802;-84
2023/10/08 17:20:03;;;;;;;;;;;;;;;8.36;100.00;100424.38;5053638;28;20010;-83
2023/10/08 17:22:29;;;;;;;;;;;;;;;8.35;100.00;100430.56;5036164;28;19939;-83
2023/10/08 17:24:55;;;;;;;;;;;;;;;8.07;100.00;100435.59;5037288;28;19917;-84
2023/10/08 17:27:21;;;;;;;;;;;;;;;7.86;100.00;100445.69;5035598;28;19928;-85
2023/10/08 17:29:46;;;;;;;;;;;;;;;7.75;100.00;100440.63;5036435;28;19921;-86
2023/10/08 17:32:11;;;;;;;;;;;;;;;7.73;100.00;100441.59;5051041;28;20384;-86
2023/10/08 17:34:37;;;;;;;;;;;;;;;7.66;100.00;100450.50;5036197;28;19920;-83
2023/10/08 17:37:02;;;;;;;;;;;;;;;7.90;100.00;100454.44;5032047;28;20371;-82
2023/10/08 17:39:27;;;;;;;;;;;;;;;8.21;100.00;100453.75;5043132;28;19925;-84
2023/10/08 17:41:53;;;;;;;;;;;;;;;8.35;100.00;100454.31;5040041;28;20031;-83
2023/10/08 17:44:19;;;;;;;;;;;;;;;8.49;100.00;100454.91;5024175;28;19954;-84
2023/10/08 17:46:45;;;;;;;;;;;;;;;8.67;100.00;100455.34;5032476;28;19928;-83
2023/10/08 17:49:11;;;;;;;;;;;;;;;8.77;100.00;100454.22;5042767;28;19924;-83
2023/10/08 17:51:36;;;;;;;;;;;;;;;8.86;100.00;100451.34;5036042;28;20149;-82
2023/10/08 17:54:04;;;;;;;;;;;;;;;8.84;100.00;100450.53;5041533;28;19933;-83
2023/10/08 17:56:30;;;;;;;;;;;;;;;8.90;100.00;100460.94;5022408;28;19940;-84
2023/10/08 17:58:55;;;;;;;;;;;;;;;9.01;100.00;100452.72;5047835;28;20015;-86
2023/10/08 18:01:25;;;;;;;;;;;;;;;9.02;100.00;100443.03;5026334;28;19968;-88
2023/10/08 18:03:50;;;;;;;;;;;;;;;9.07;100.00;100451.72;5032574;28;19928;-86
2023/10/08 18:06:16;;;;;;;;;;;;;;;8.91;100.00;100457.38;5042295;28;19921;-83
2023/10/08 18:08:52;;;;;;;;;;;;;;;8.84;100.00;100461.09;5025076;28;19924;-85
2023/10/08 18:11:22;;;;;;;;;;;;;;;8.84;100.00;100453.16;5023939;28;19929;-90
2023/10/08 18:13:57;;;;;;;;;;;;;;;8.97;100.00;100455.50;5040183;28;20316;-90
2023/10/08 18:16:22;;;;;;;;;;;;;;;8.97;100.00;100455.50;5041715;28;19925;-86
2023/10/08 18:18:49;;;;;;;;;;;;;;;8.97;100.00;100451.09;5044082;28;19939;-86
2023/10/08 18:21:18;;;;;;;;;;;;;;;8.97;100.00;100450.22;5038114;28;20360;-82
2023/10/08 18:23:45;;;;;;;;;;;;;;;9.05;100.00;100445.59;5039758;28;20299;-91
2023/10/08 18:26:10;;;;;;;;;;;;;;;9.05;100.00;100443.81;5026460;28;19917;-83
2023/10/08 18:28:37;;;;;;;;;;;;;;;9.12;100.00;100446.31;5043232;28;19951;-84
2023/10/08 18:31:06;;;;;;;;;;;;;;;9.04;100.00;100446.50;5042893;28;19951;-82
2023/10/08 18:33:32;;;;;;;;;;;;;;;9.18;100.00;100449.66;5044349;28;19925;-84
2023/10/08 18:36:04;;;;;;;;;;;;;;;9.13;100.00;100448.91;5042473;28;20015;-83
2023/10/08 18:38:30;;;;;;;;;;;;;;;9.11;100.00;100448.09;5025647;28;19944;-83
2023/10/08 18:40:55;;;;;;;;;;;;;;;9.07;100.00;100439.34;5043686;28;20372;-82
2023/10/08 18:43:20;;;;;;;;;;;;;;;9.11;100.00;100448.09;5043873;28;19945;-85
2023/10/08 18:45:46;;;;;;;;;;;;;;;9.07;100.00;100443.78;5043675;28;19928;-83
2023/10/08 18:48:11;;;;;;;;;;;;;;;9.09;100.00;100444.59;5023608;28;20427;-84
2023/10/08 18:50:36;;;;;;;;;;;;;;;9.19;100.00;100443.47;5024228;28;19921;-83
2023/10/08 18:53:02;;;;;;;;;;;;;;;9.24;100.00;100445.97;5025935;28;19924;-83
2023/10/08 18:55:30;;;;;;;;;;;;;;;9.29;100.00;100443.22;5025631;28;19927;-83
2023/10/08 18:58:04;;;;;;;;;;;;;;;9.30;100.00;100434.34;5039279;28;19924;-83
2023/10/08 19:00:32;;;;;;;;;;;;;;;9.15;100.00;100439.16;5042221;28;19921;-83
2023/10/08 19:02:58;;;;;;;;;;;;;;;9.25;100.00;100430.09;5025392;28;19972;-84
2023/10/08 19:05:23;;;;;;;;;;;;;;;9.25;100.00;100440.66;5042089;28;19916;-83
2023/10/08 19:07:50;;;;;;;;;;;;;;;9.19;100.00;100432.88;5042006;28;19921;-83
2023/10/08 19:10:15;;;;;;;;;;;;;;;9.14;100.00;100428.63;5042150;28;19949;-82
2023/10/08 19:12:43;;;;;;;;;;;;;;;9.20;100.00;100431.09;5043063;28;19979;-83
2023/10/08 19:15:13;;;;;;;;;;;;;;;9.58;100.00;100423.88;5043346;28;20326;-82
2023/10/08 19:17:42;;;;;;;;;;;;;;;9.48;100.00;100428.56;5042000;28;20468;-83
2023/10/08 19:20:08;;;;;;;;;;;;;;;9.27;100.00;100433.53;5043259;28;19931;-82
2023/10/08 19:22:33;;;;;;;;;;;;;;;9.38;100.00;100432.38;5041626;28;19921;-82
2023/10/08 19:25:00;;;;;;;;;;;;;;;9.53;100.00;100428.44;5042174;28;19917;-83
2023/10/08 19:27:25;;;;;;;;;;;;;;;9.29;100.00;100422.06;5041173;28;20012;-82
2023/10/08 19:29:50;;;;;;;;;;;;;;;9.37;100.00;100428.00;5042935;28;20011;-83
2023/10/08 19:32:16;;;;;;;;;;;;;;;9.27;100.00;100432.69;5042486;28;20342;-84
2023/10/08 19:34:41;;;;;;;;;;;;;;;9.33;100.00;100432.50;5042117;28;19917;-83
2023/10/08 19:37:06;;;;;;;;;;;;;;;9.33;100.00;100436.91;5043494;28;19928;-83
2023/10/08 19:39:32;;;;;;;;;;;;;;;9.27;100.00;100435.31;5052357;28;19927;-83
2023/10/08 19:41:57;;;;;;;;;;;;;;;9.38;100.00;100435.00;5052720;28;20278;-83
2023/10/08 19:44:23;;;;;;;;;;;;;;;9.33;100.00;100443.06;5052272;28;19978;-82
2023/10/08 19:46:48;;;;;;;;;;;;;;;9.26;100.00;100436.22;5052531;28;20784;-82
2023/10/08 19:49:14;;;;;;;;;;;;;;;9.30;100.00;100432.56;5052331;28;19920;-83
2023/10/08 19:51:40;;;;;;;;;;;;;;;9.31;100.00;100433.47;5049722;28;19921;-82
2023/10/08 19:54:05;;;;;;;;;;;;;;;9.47;100.00;100431.25;5033841;28;20050;-84
2023/10/08 19:56:30;;;;;;;;;;;;;;;9.49;100.00;100432.06;5052232;28;19979;-83
2023/10/08 19:58:56;;;;;;;;;;;;;;;9.30;100.00;100423.78;5052472;28;19931;-82
2023/10/08 20:01:21;;;;;;;;;;;;;;;9.43;100.00;100433.13;5052157;28;19913;-83
2023/10/08 20:03:46;;;;;;;;;;;;;;;9.36;100.00;100437.69;5052067;28;19917;-82
2023/10/08 20:06:12;;;;;;;;;;;;;;;9.30;100.00;100431.72;5051059;28;19943;-83
2023/10/08 20:08:38;;;;;;;;;;;;;;;9.33;100.00;100431.63;5050765;28;19923;-83
2023/10/08 20:11:04;;;;;;;;;;;;;;;9.53;100.00;100434.59;5052429;28;19996;-82
2023/10/08 20:13:29;;;;;;;;;;;;;;;9.49;100.00;100427.63;5051048;28;19917;-83
2023/10/08 20:15:54;;;;;;;;;;;;;;;9.49;100.00;100427.63;5050789;28;19920;-83
2023/10/08 20:18:20;;;;;;;;;;;;;;;9.38;100.00;100424.44;5033514;28;19917;-83
2023/10/08 20:20:47;;;;;;;;;;;;;;;9.45;100.00;100426.00;5032262;28;20310;-94
2023/10/08 20:23:13;;;;;;;;;;;;;;;9.41;100.00;100424.34;5052100;28;19974;-83
2023/10/08 20:25:40;;;;;;;;;;;;;;;9.39;100.00;100420.88;5033131;28;19917;-82
2023/10/08 20:28:10;;;;;;;;;;;;;;;9.29;100.00;100424.72;5050581;28;19925;-83
2023/10/08 20:30:39;;;;;;;;;;;;;;;9.60;100.00;100414.97;5051843;28;19921;-83
2023/10/08 20:33:09;;;;;;;;;;;;;;;9.54;100.00;100415.16;5051862;28;19962;-83
2023/10/08 20:35:39;;;;;;;;;;;;;;;9.45;100.00;100416.28;5032474;28;19974;-84
2023/10/08 20:38:05;;;;;;;;;;;;;;;9.26;100.00;100410.63;5051530;28;19921;-83
2023/10/08 20:40:32;;;;;;;;;;;;;;;9.19;100.00;100418.78;5050771;28;20019;-84
2023/10/08 20:42:57;;;;;;;;;;;;;;;9.40;100.00;100412.06;5051691;28;19913;-83
2023/10/08 20:45:25;;;;;;;;;;;;;;;9.52;100.00;100409.03;5050694;28;19927;-82
2023/10/08 20:47:53;;;;;;;;;;;;;;;9.37;100.00;100410.34;5056126;28;19921;-83
2023/10/08 20:50:19;;;;;;;;;;;;;;;9.40;100.00;100407.63;5055481;28;20008;-83
2023/10/08 20:52:51;;;;;;;;;;;;;;;9.40;100.00;100410.25;5054635;28;19996;-82
2023/10/08 20:55:17;;;;;;;;;;;;;;;9.35;100.00;100403.34;5055607;28;20028;-82
2023/10/08 20:57:44;;;;;;;;;;;;;;;9.24;100.00;100412.47;5054317;28;20012;-82
2023/10/08 21:00:10;;;;;;;;;;;;;;;9.12;100.00;100415.44;5055587;28;19917;-82
2023/10/08 21:02:35;;;;;;;;;;;;;;;9.16;100.00;100414.47;5055459;28;19971;-83
2023/10/08 21:05:01;;;;;;;;;;;;;;;9.24;100.00;100412.47;5055472;28;19924;-83
2023/10/08 21:07:27;;;;;;;;;;;;;;;9.33;100.00;100408.69;5035443;28;19973;-93
2023/10/08 21:09:53;;;;;;;;;;;;;;;9.37;100.00;100409.50;5055493;28;19917;-84
2023/10/08 21:12:18;;;;;;;;;;;;;;;9.20;100.00;100408.16;5055336;28;20322;-85
2023/10/08 21:14:43;;;;;;;;;;;;;;;9.29;100.00;100411.50;5055226;28;19917;-87
2023/10/08 21:17:08;;;;;;;;;;;;;;;9.24;100.00;100415.13;5055467;28;19917;-86
2023/10/08 21:19:34;;;;;;;;;;;;;;;9.25;100.00;100415.97;5054387;28;19917;-86
2023/10/08 21:22:00;;;;;;;;;;;;;;;9.26;100.00;100415.06;5053679;28;20004;-86
2023/10/08 21:24:25;;;;;;;;;;;;;;;9.45;100.00;100415.44;5055117;28;20015;-85
2023/10/08 21:26:51;;;;;;;;;;;;;;;9.48;100.00;100404.75;5053749;28;19921;-84
2023/10/08 21:29:18;;;;;;;;;;;;;;;9.47;100.00;100405.66;5054979;28;19931;-86
2023/10/08 21:31:43;;;;;;;;;;;;;;;9.49;100.00;100406.47;5054824;28;20338;-85
2023/10/08 21:34:09;;;;;;;;;;;;;;;9.54;100.00;100409.88;5056695;28;19947;-88
2023/10/08 21:36:34;;;;;;;;;;;;;;;9.59;100.00;100410.59;5034796;28;20003;-84
2023/10/08 21:39:04;;;;;;;;;;;;;;;9.62;100.00;100412.28;5055056;28;19921;-87
2023/10/08 21:41:31;;;;;;;;;;;;;;;9.44;100.00;100408.38;5036015;28;19924;-85
2023/10/08 21:43:56;;;;;;;;;;;;;;;9.40;100.00;100404.97;5054146;28;19917;-85
2023/10/08 21:46:23;;;;;;;;;;;;;;;9.29;100.00;100403.56;5054701;28;19917;-85
2023/10/08 21:48:49;;;;;;;;;;;;;;;9.33;100.00;100406.03;5053165;28;19924;-85
2023/10/08 21:51:14;;;;;;;;;;;;;;;9.43;100.00;100401.38;5053363;28;19917;-85
2023/10/08 21:53:40;;;;;;;;;;;;;;;9.49;100.00;100400.31;5054511;28;19920;-85
2023/10/08 21:56:11;;;;;;;;;;;;;;;9.27;100.00;100395.66;5054465;28;19964;-85
2023/10/08 21:58:37;;;;;;;;;;;;;;;9.31;100.00;100407.00;5053197;28;19924;-85
2023/10/08 22:01:09;;;;;;;;;;;;;;;9.23;100.00;100399.28;5036423;28;19917;-84
2023/10/08 22:03:35;;;;;;;;;;;;;;;9.26;100.00;100389.47;5054269;28;19920;-83
2023/10/08 22:06:01;;;;;;;;;;;;;;;9.31;100.00;100391.16;5052903;28;19921;-85
2023/10/08 22:08:27;;;;;;;;;;;;;;;9.37;100.00;100378.59;5054434;28;19944;-84
2023/10/08 22:10:53;;;;;;;;;;;;;;;9.32;100.00;100388.47;5054185;28;20011;-83
2023/10/08 22:13:25;;;;;;;;;;;;;;;9.29;100.00;100390.31;5054334;28;20007;-85
2023/10/08 22:15:55;;;;;;;;;;;;;;;9.38;100.00;100387.41;5053707;28;19963;-84
2023/10/08 22:18:32;;;;;;;;;;;;;;;9.39;100.00;100382.06;5053541;28;20480;-83
2023/10/08 22:21:10;;;;;;;;;;;;;;;9.44;100.00;100385.47;5052787;28;19979;-84
2023/10/08 22:23:38;;;;;;;;;;;;;;;9.39;100.00;100375.91;5054009;28;20403;-84
2023/10/08 22:26:03;;;;;;;;;;;;;;;9.24;100.00;100377.22;5053283;28;19921;-85
2023/10/08 22:28:29;;;;;;;;;;;;;;;9.22;100.00;100382.56;5053185;28;19917;-85
2023/10/08 22:30:55;;;;;;;;;;;;;;;9.37;100.00;100375.09;5053973;28;20001;-84
2023/10/08 22:33:33;;;;;;;;;;;;;;;9.27;100.00;100382.44;5053772;28;19952;-85
2023/10/08 22:36:03;;;;;;;;;;;;;;;9.44;100.00;100379.28;5052485;28;19920;-84
2023/10/08 22:38:28;;;;;;;;;;;;;;;9.45;100.00;100383.69;5053856;28;20334;-85
2023/10/08 22:43:30;;;;;;;;;;;;;;;9.29;100.00;100366.53;5053354;28;20276;-86
2023/10/08 22:45:58;;;;;;;;;;;;;;;9.27;100.00;100362.13;5052134;28;20356;-84
2023/10/08 22:48:35;;;;;;;;;;;;;;;9.21;100.00;100370.25;5053845;28;20360;-84
2023/10/08 22:51:02;;;;;;;;;;;;;;;9.41;100.00;100363.50;5052297;28;19917;-85
2023/10/08 22:53:30;;;;;;;;;;;;;;;9.36;100.00;100361.00;5053749;28;19956;-85
2023/10/08 22:55:55;;;;;;;;;;;;;;;9.37;100.00;100357.44;5053299;28;20003;-85
2023/10/08 22:58:21;;;;;;;;;;;;;;;9.38;100.00;100359.19;5052287;28;20372;-86
2023/10/08 23:00:49;;;;;;;;;;;;;;;9.43;100.00;100367.00;5053231;28;20283;-85
2023/10/08 23:03:21;;;;;;;;;;;;;;;9.30;100.00;100355.03;5053342;28;20388;-85
2023/10/08 23:05:47;;;;;;;;;;;;;;;9.36;100.00;100360.13;5051534;28;19924;-85
2023/10/08 23:08:12;;;;;;;;;;;;;;;9.20;100.00;100367.63;5052555;28;20330;-86
2023/10/08 23:10:39;;;;;;;;;;;;;;;9.32;100.00;100364.66;5034688;28;19917;-85
2023/10/08 23:13:08;;;;;;;;;;;;;;;9.41;100.00;100358.22;5053255;28;19921;-85
2023/10/08 23:15:36;;;;;;;;;;;;;;;9.45;100.00;100351.94;5053106;28;20372;-83
